ADDS METAR Data INFO
IDs: Format: Raw Decoded Include TAF

Data at: 0108 UTC 16 Aug 2018

KBWI 160054Z 24004KT 10SM FEW180 BKN250 25/20 A3002 RMK AO2 SLP163 T02500200
KBWI 152354Z 26005KT 10SM FEW180 BKN250 26/19 A3000 RMK AO2 SLP157 T02610194 10317 20261 53002
KBWI 152254Z 27006KT 10SM BKN250 29/19 A2999 RMK AO2 SLP153 T02890189
KBWI 152154Z 28012G17KT 10SM FEW055 BKN250 30/18 A2999 RMK AO2 SLP155 T03000183
KBWI 152054Z 29009KT 10SM FEW055 BKN250 31/19 A2999 RMK AO2 SLP155 T03110189 55001
KBWI 151954Z 29008KT 10SM SCT055 BKN250 31/19 A2999 RMK AO2 SLP154 T03110194
KBWI 151854Z 30008KT 10SM FEW055 FEW150 BKN250 32/19 A2999 RMK AO2 SLP155 T03170189
KBWI 151754Z 28009KT 10SM FEW048 FEW150 SCT250 31/19 A3000 RMK AO2 SLP156 T03060194 10311 20222 58006
KBWI 151654Z 26007KT 10SM FEW044 FEW110 FEW150 SCT250 30/21 A3001 RMK AO2 SLP160 T03000206
KBWI 151554Z 30009KT 10SM FEW039 FEW110 SCT150 BKN250 29/20 A3001 RMK AO2 SLP162 T02940200
KBWI 151454Z COR 30006G16KT 10SM FEW110 FEW150 BKN250 28/19 A3001 RMK AO2 SLP162 T02830194 51013
KBWI 151354Z 26006KT 10SM FEW150 SCT250 27/20 A3001 RMK AO2 SLP160 T02720200
KBWI 151254Z 28005KT 10SM FEW150 SCT250 25/20 A2999 RMK AO2 SLP155 T02500200
KBWI 151154Z 27007KT 10SM FEW150 SCT250 22/19 A2998 RMK AO2 SLP150 70002 T02220194 10222 20200 53009
KBWI 151054Z 26006KT 10SM FEW150 SCT250 21/19 A2997 RMK AO2 SLP148 T02060189
KBWI 150954Z 26006KT 10SM CLR 20/18 A2995 RMK AO2 SLP141 T02000183
KBWI 150854Z 26007KT 10SM FEW150 21/18 A2995 RMK AO2 SLP140 T02110183 51002
KBWI 150754Z 26006KT 10SM CLR 21/18 A2995 RMK AO2 SLP140 T02110183
KBWI 150654Z 25005KT 10SM SCT150 21/19 A2994 RMK AO2 SLP138 T02110189
KBWI 150554Z 26005KT 10SM FEW110 SCT150 22/19 A2994 RMK AO2 SLP138 T02170189 10239 20217 58003
KBWI 150454Z 26008KT 10SM BKN110 BKN160 22/19 A2996 RMK AO2 SLP143 T02220189 402890189
KBWI 150354Z 26006KT 10SM BKN100 OVC160 22/19 A2996 RMK AO2 SLP143 T02220194
KBWI 150254Z 22003KT 10SM FEW110 SCT160 22/19 A2995 RMK AO2 SLP141 T02220194 51013
KBWI 150154Z 23004KT 10SM BKN160 23/20 A2995 RMK AO2 SLP140 T02280200
KBWI 150054Z 24004KT 10SM FEW110 BKN160 BKN250 23/20 A2993 RMK AO2 SLP133 T02330200
KBWI 142354Z 25006KT 10SM FEW080 BKN110 BKN160 BKN250 24/20 A2991 RMK AO2 SLP128 CB DSNT E-SE MOV E TCU DSNT S 60002 T02390200 10289 20239 51012
KBWI 142254Z 26010KT 10SM FEW043 BKN110 BKN160 BKN250 24/19 A2990 RMK AO2 SLP125 VIRGA E TCU DSNT E-SE T02440194
KBWI 142154Z 25006KT 10SM SCT047TCU SCT060 BKN110 BKN160 BKN250 24/21 A2990 RMK AO2 RAB38E49 SLP123 TCU NE-SE P0002 T02440206
KBWI 142054Z 26011G18KT 10SM SCT049 SCT085 SCT160 BKN250 29/18 A2988 RMK AO2 SLP115 TCU DSNT SW AND DSNT NW-N T02890183 56012
KBWI 141954Z 27010KT 10SM SCT047 SCT160 BKN250 28/18 A2988 RMK AO2 SLP116 TCU DSNT SW-W T02830178
KBWI 141854Z 28009KT 10SM SCT044 SCT065 SCT160 BKN250 28/19 A2990 RMK AO2 SLP123 T02830189
KBWI 141754Z 29011KT 10SM SCT038 SCT120 SCT160 BKN250 27/18 A2991 RMK AO2 SLP127 T02720183 10278 20206 58010
KBWI 141654Z 28011KT 10SM SCT035 SCT120 SCT160 BKN250 27/19 A2992 RMK AO2 SLP131 T02720189
KBWI 141554Z 28010KT 10SM SCT028 SCT060 SCT120 SCT160 26/19 A2993 RMK AO2 SLP134 T02560189
KBWI 141454Z 28012KT 10SM SCT032 SCT060 SCT120 BKN160 BKN250 26/19 A2994 RMK AO2 SLP138 T02560194 51005
KBWI 141354Z 28010KT 10SM FEW034 FEW060 FEW130 SCT250 24/19 A2994 RMK AO2 SLP136 T02390194